sensor_id;sensor_type;location;lat;lon;timestamp;P1;durP1;ratioP1;P2;durP2;ratioP2
20344;SDS011;10330;48.816;9.278;2023-02-28T00:01:16;1.98;;;1.80;;
20344;SDS011;10330;48.816;9.278;2023-02-28T00:03:43;2.35;;;1.92;;
20344;SDS011;10330;48.816;9.278;2023-02-28T00:06:09;3.70;;;1.85;;
20344;SDS011;10330;48.816;9.278;2023-02-28T00:08:36;2.10;;;1.92;;
20344;SDS011;10330;48.816;9.278;2023-02-28T00:11:03;2.55;;;2.22;;
20344;SDS011;10330;48.816;9.278;2023-02-28T00:13:33;7.65;;;2.38;;
20344;SDS011;10330;48.816;9.278;2023-02-28T00:16:02;2.50;;;2.30;;
20344;SDS011;10330;48.816;9.278;2023-02-28T00:18:32;3.58;;;2.20;;
20344;SDS011;10330;48.816;9.278;2023-02-28T00:20:59;7.07;;;2.15;;
20344;SDS011;10330;48.816;9.278;2023-02-28T00:23:26;1.98;;;1.88;;
20344;SDS011;10330;48.816;9.278;2023-02-28T00:25:52;2.10;;;2.00;;
20344;SDS011;10330;48.816;9.278;2023-02-28T00:28:19;3.08;;;1.88;;
20344;SDS011;10330;48.816;9.278;2023-02-28T00:30:45;9.50;;;2.40;;
20344;SDS011;10330;48.816;9.278;2023-02-28T00:33:12;2.00;;;1.90;;
20344;SDS011;10330;48.816;9.278;2023-02-28T00:35:38;4.65;;;2.28;;
20344;SDS011;10330;48.816;9.278;2023-02-28T00:38:05;4.82;;;2.08;;
20344;SDS011;10330;48.816;9.278;2023-02-28T00:40:34;3.15;;;2.30;;
20344;SDS011;10330;48.816;9.278;2023-02-28T00:43:00;2.47;;;2.03;;
20344;SDS011;10330;48.816;9.278;2023-02-28T00:45:27;2.20;;;2.10;;
20344;SDS011;10330;48.816;9.278;2023-02-28T00:47:53;1.70;;;1.60;;
20344;SDS011;10330;48.816;9.278;2023-02-28T00:50:19;3.72;;;2.20;;
20344;SDS011;10330;48.816;9.278;2023-02-28T00:52:46;2.58;;;1.77;;
20344;SDS011;10330;48.816;9.278;2023-02-28T00:55:13;3.30;;;2.13;;
20344;SDS011;10330;48.816;9.278;2023-02-28T00:57:40;4.53;;;2.10;;
20344;SDS011;10330;48.816;9.278;2023-02-28T01:00:06;1.92;;;1.83;;
20344;SDS011;10330;48.816;9.278;2023-02-28T01:02:34;3.08;;;1.90;;
20344;SDS011;10330;48.816;9.278;2023-02-28T01:05:00;2.42;;;2.17;;
20344;SDS011;10330;48.816;9.278;2023-02-28T01:07:29;2.17;;;2.08;;
20344;SDS011;10330;48.816;9.278;2023-02-28T01:09:55;3.47;;;2.63;;
20344;SDS011;10330;48.816;9.278;2023-02-28T01:12:24;2.50;;;2.20;;
20344;SDS011;10330;48.816;9.278;2023-02-28T01:14:50;2.00;;;1.77;;
20344;SDS011;10330;48.816;9.278;2023-02-28T01:17:16;2.78;;;2.17;;
20344;SDS011;10330;48.816;9.278;2023-02-28T01:19:43;3.75;;;2.72;;
20344;SDS011;10330;48.816;9.278;2023-02-28T01:22:09;7.15;;;2.30;;
20344;SDS011;10330;48.816;9.278;2023-02-28T01:24:36;6.65;;;2.00;;
20344;SDS011;10330;48.816;9.278;2023-02-28T01:27:03;3.17;;;2.30;;
20344;SDS011;10330;48.816;9.278;2023-02-28T01:29:29;2.17;;;2.08;;
20344;SDS011;10330;48.816;9.278;2023-02-28T01:31:55;4.50;;;1.95;;
20344;SDS011;10330;48.816;9.278;2023-02-28T01:34:22;2.50;;;2.00;;
20344;SDS011;10330;48.816;9.278;2023-02-28T01:36:50;5.38;;;2.50;;
20344;SDS011;10330;48.816;9.278;2023-02-28T01:39:18;2.92;;;2.05;;
20344;SDS011;10330;48.816;9.278;2023-02-28T01:41:47;3.45;;;2.17;;
20344;SDS011;10330;48.816;9.278;2023-02-28T01:47:17;3.70;;;2.10;;
20344;SDS011;10330;48.816;9.278;2023-02-28T01:49:43;3.72;;;2.53;;
20344;SDS011;10330;48.816;9.278;2023-02-28T01:52:10;5.32;;;2.63;;
20344;SDS011;10330;48.816;9.278;2023-02-28T01:54:44;3.65;;;2.30;;
20344;SDS011;10330;48.816;9.278;2023-02-28T01:57:18;4.22;;;2.33;;
20344;SDS011;10330;48.816;9.278;2023-02-28T01:59:48;3.45;;;2.20;;
20344;SDS011;10330;48.816;9.278;2023-02-28T02:02:22;5.22;;;2.53;;
20344;SDS011;10330;48.816;9.278;2023-02-28T02:04:50;4.15;;;2.42;;
20344;SDS011;10330;48.816;9.278;2023-02-28T02:07:27;2.73;;;2.40;;
20344;SDS011;10330;48.816;9.278;2023-02-28T02:10:04;2.92;;;2.60;;
20344;SDS011;10330;48.816;9.278;2023-02-28T02:15:39;4.60;;;2.47;;
20344;SDS011;10330;48.816;9.278;2023-02-28T02:18:25;1.95;;;1.85;;
20344;SDS011;10330;48.816;9.278;2023-02-28T02:21:13;5.88;;;2.75;;
20344;SDS011;10330;48.816;9.278;2023-02-28T02:26:58;2.67;;;2.17;;
20344;SDS011;10330;48.816;9.278;2023-02-28T02:37:25;2.45;;;2.28;;
20344;SDS011;10330;48.816;9.278;2023-02-28T02:40:28;2.72;;;2.47;;
20344;SDS011;10330;48.816;9.278;2023-02-28T02:43:00;3.05;;;2.80;;
20344;SDS011;10330;48.816;9.278;2023-02-28T02:48:16;4.00;;;2.38;;
20344;SDS011;10330;48.816;9.278;2023-02-28T02:50:46;3.88;;;2.70;;
20344;SDS011;10330;48.816;9.278;2023-02-28T02:53:17;4.07;;;2.72;;
20344;SDS011;10330;48.816;9.278;2023-02-28T02:55:48;10.25;;;3.15;;
20344;SDS011;10330;48.816;9.278;2023-02-28T02:58:18;6.18;;;2.83;;
20344;SDS011;10330;48.816;9.278;2023-02-28T03:00:53;3.30;;;2.80;;
20344;SDS011;10330;48.816;9.278;2023-02-28T03:03:23;3.08;;;2.50;;
20344;SDS011;10330;48.816;9.278;2023-02-28T03:05:56;3.28;;;2.85;;
20344;SDS011;10330;48.816;9.278;2023-02-28T03:08:23;3.40;;;3.10;;
20344;SDS011;10330;48.816;9.278;2023-02-28T03:10:50;4.82;;;2.85;;
20344;SDS011;10330;48.816;9.278;2023-02-28T03:13:26;4.20;;;2.92;;
20344;SDS011;10330;48.816;9.278;2023-02-28T03:27:09;4.38;;;3.00;;
20344;SDS011;10330;48.816;9.278;2023-02-28T03:30:06;4.30;;;3.00;;
20344;SDS011;10330;48.816;9.278;2023-02-28T03:32:49;3.33;;;3.03;;
20344;SDS011;10330;48.816;9.278;2023-02-28T03:35:28;5.68;;;3.00;;
20344;SDS011;10330;48.816;9.278;2023-02-28T03:38:04;7.03;;;3.78;;
20344;SDS011;10330;48.816;9.278;2023-02-28T03:41:02;17.40;;;8.60;;
20344;SDS011;10330;48.816;9.278;2023-02-28T03:43:44;6.80;;;2.85;;
20344;SDS011;10330;48.816;9.278;2023-02-28T03:46:36;11.43;;;4.47;;
20344;SDS011;10330;48.816;9.278;2023-02-28T03:49:12;8.15;;;4.93;;
20344;SDS011;10330;48.816;9.278;2023-02-28T03:51:42;10.48;;;5.13;;
20344;SDS011;10330;48.816;9.278;2023-02-28T03:54:12;11.30;;;3.22;;
20344;SDS011;10330;48.816;9.278;2023-02-28T03:56:46;5.28;;;3.28;;
20344;SDS011;10330;48.816;9.278;2023-02-28T03:59:25;6.25;;;3.45;;
20344;SDS011;10330;48.816;9.278;2023-02-28T04:01:54;23.70;;;9.43;;
20344;SDS011;10330;48.816;9.278;2023-02-28T04:04:23;5.75;;;4.18;;
20344;SDS011;10330;48.816;9.278;2023-02-28T04:06:51;6.20;;;3.00;;
20344;SDS011;10330;48.816;9.278;2023-02-28T04:09:18;4.28;;;3.22;;
20344;SDS011;10330;48.816;9.278;2023-02-28T04:14:10;3.30;;;2.95;;
20344;SDS011;10330;48.816;9.278;2023-02-28T04:16:38;3.95;;;3.05;;
20344;SDS011;10330;48.816;9.278;2023-02-28T04:19:06;5.50;;;3.25;;
20344;SDS011;10330;48.816;9.278;2023-02-28T04:21:35;7.03;;;3.40;;
20344;SDS011;10330;48.816;9.278;2023-02-28T04:24:10;5.53;;;3.30;;
20344;SDS011;10330;48.816;9.278;2023-02-28T04:26:40;6.95;;;3.03;;
20344;SDS011;10330;48.816;9.278;2023-02-28T04:29:09;6.10;;;3.22;;
20344;SDS011;10330;48.816;9.278;2023-02-28T04:31:37;6.28;;;3.40;;
20344;SDS011;10330;48.816;9.278;2023-02-28T04:34:04;7.18;;;2.67;;
20344;SDS011;10330;48.816;9.278;2023-02-28T04:36:30;3.40;;;3.10;;
20344;SDS011;10330;48.816;9.278;2023-02-28T04:38:57;4.35;;;3.10;;
20344;SDS011;10330;48.816;9.278;2023-02-28T04:41:23;6.00;;;3.13;;
20344;SDS011;10330;48.816;9.278;2023-02-28T04:43:53;3.65;;;3.35;;
20344;SDS011;10330;48.816;9.278;2023-02-28T04:46:25;5.38;;;3.60;;
20344;SDS011;10330;48.816;9.278;2023-02-28T04:48:54;4.60;;;3.70;;
20344;SDS011;10330;48.816;9.278;2023-02-28T04:53:56;2.90;;;2.67;;
20344;SDS011;10330;48.816;9.278;2023-02-28T04:56:22;5.55;;;3.80;;
20344;SDS011;10330;48.816;9.278;2023-02-28T04:58:49;5.20;;;3.45;;
20344;SDS011;10330;48.816;9.278;2023-02-28T05:01:17;4.97;;;3.47;;
20344;SDS011;10330;48.816;9.278;2023-02-28T05:03:51;4.97;;;3.28;;
20344;SDS011;10330;48.816;9.278;2023-02-28T05:06:19;5.25;;;3.58;;
20344;SDS011;10330;48.816;9.278;2023-02-28T05:08:46;4.55;;;3.75;;
20344;SDS011;10330;48.816;9.278;2023-02-28T05:11:17;5.35;;;3.47;;
20344;SDS011;10330;48.816;9.278;2023-02-28T05:13:49;6.07;;;3.72;;
20344;SDS011;10330;48.816;9.278;2023-02-28T05:16:16;6.95;;;3.78;;
20344;SDS011;10330;48.816;9.278;2023-02-28T05:18:43;4.88;;;3.50;;
20344;SDS011;10330;48.816;9.278;2023-02-28T05:21:29;7.82;;;4.20;;
20344;SDS011;10330;48.816;9.278;2023-02-28T05:23:58;3.95;;;3.55;;
20344;SDS011;10330;48.816;9.278;2023-02-28T05:26:29;4.45;;;3.47;;
20344;SDS011;10330;48.816;9.278;2023-02-28T05:28:56;6.60;;;4.18;;
20344;SDS011;10330;48.816;9.278;2023-02-28T05:31:23;4.40;;;3.28;;
20344;SDS011;10330;48.816;9.278;2023-02-28T05:33:49;4.60;;;3.63;;
20344;SDS011;10330;48.816;9.278;2023-02-28T05:36:15;8.73;;;4.55;;
20344;SDS011;10330;48.816;9.278;2023-02-28T05:38:41;4.07;;;3.65;;
20344;SDS011;10330;48.816;9.278;2023-02-28T05:41:11;4.65;;;3.47;;
20344;SDS011;10330;48.816;9.278;2023-02-28T05:43:37;3.33;;;3.03;;
20344;SDS011;10330;48.816;9.278;2023-02-28T05:46:04;6.13;;;3.70;;
20344;SDS011;10330;48.816;9.278;2023-02-28T05:48:32;8.07;;;4.30;;
20344;SDS011;10330;48.816;9.278;2023-02-28T05:50:59;10.85;;;3.97;;
20344;SDS011;10330;48.816;9.278;2023-02-28T05:53:25;5.72;;;3.25;;
20344;SDS011;10330;48.816;9.278;2023-02-28T05:55:52;5.82;;;4.18;;
20344;SDS011;10330;48.816;9.278;2023-02-28T06:02:40;4.45;;;4.05;;
20344;SDS011;10330;48.816;9.278;2023-02-28T07:03:50;6.30;;;4.00;;
20344;SDS011;10330;48.816;9.278;2023-02-28T07:07:03;7.35;;;4.03;;
20344;SDS011;10330;48.816;9.278;2023-02-28T07:10:02;10.95;;;4.85;;
20344;SDS011;10330;48.816;9.278;2023-02-28T07:13:16;9.75;;;4.68;;
20344;SDS011;10330;48.816;9.278;2023-02-28T07:23:02;9.52;;;4.05;;
20344;SDS011;10330;48.816;9.278;2023-02-28T07:33:54;9.60;;;5.80;;
20344;SDS011;10330;48.816;9.278;2023-02-28T07:36:46;5.00;;;4.45;;
20344;SDS011;10330;48.816;9.278;2023-02-28T07:39:21;6.38;;;4.57;;
20344;SDS011;10330;48.816;9.278;2023-02-28T07:41:53;12.85;;;5.68;;
20344;SDS011;10330;48.816;9.278;2023-02-28T07:45:33;8.55;;;4.82;;
20344;SDS011;10330;48.816;9.278;2023-02-28T07:48:33;9.90;;;5.50;;
20344;SDS011;10330;48.816;9.278;2023-02-28T07:51:14;7.40;;;4.70;;
20344;SDS011;10330;48.816;9.278;2023-02-28T07:57:01;9.65;;;4.70;;
20344;SDS011;10330;48.816;9.278;2023-02-28T07:59:36;10.93;;;5.63;;
20344;SDS011;10330;48.816;9.278;2023-02-28T08:09:07;7.57;;;5.07;;
20344;SDS011;10330;48.816;9.278;2023-02-28T08:12:29;9.23;;;5.22;;
20344;SDS011;10330;48.816;9.278;2023-02-28T08:14:59;11.77;;;5.68;;
20344;SDS011;10330;48.816;9.278;2023-02-28T08:17:29;7.47;;;5.63;;
20344;SDS011;10330;48.816;9.278;2023-02-28T08:27:27;6.47;;;5.03;;
20344;SDS011;10330;48.816;9.278;2023-02-28T09:06:10;11.38;;;5.60;;
20344;SDS011;10330;48.816;9.278;2023-02-28T09:13:17;9.50;;;5.43;;
20344;SDS011;10330;48.816;9.278;2023-02-28T09:54:31;12.93;;;5.18;;
20344;SDS011;10330;48.816;9.278;2023-02-28T10:45:38;10.40;;;5.32;;
20344;SDS011;10330;48.816;9.278;2023-02-28T11:56:36;11.63;;;5.15;;
20344;SDS011;10330;48.816;9.278;2023-02-28T12:02:05;12.45;;;6.28;;
20344;SDS011;10330;48.816;9.278;2023-02-28T12:10:24;9.77;;;5.28;;
20344;SDS011;10330;48.816;9.278;2023-02-28T12:16:17;8.27;;;5.68;;
20344;SDS011;10330;48.816;9.278;2023-02-28T12:21:54;12.00;;;5.57;;
20344;SDS011;10330;48.816;9.278;2023-02-28T12:27:13;8.52;;;6.72;;
20344;SDS011;10330;48.816;9.278;2023-02-28T12:29:54;7.68;;;5.65;;
20344;SDS011;10330;48.816;9.278;2023-02-28T12:32:32;6.22;;;5.07;;
20344;SDS011;10330;48.816;9.278;2023-02-28T12:35:04;8.75;;;5.03;;
20344;SDS011;10330;48.816;9.278;2023-02-28T12:40:32;9.88;;;5.88;;
20344;SDS011;10330;48.816;9.278;2023-02-28T12:43:09;10.98;;;6.78;;
20344;SDS011;10330;48.816;9.278;2023-02-28T12:45:46;10.20;;;5.90;;
20344;SDS011;10330;48.816;9.278;2023-02-28T12:48:22;9.65;;;5.65;;
20344;SDS011;10330;48.816;9.278;2023-02-28T12:50:57;7.90;;;5.63;;
20344;SDS011;10330;48.816;9.278;2023-02-28T12:53:30;8.07;;;5.80;;
20344;SDS011;10330;48.816;9.278;2023-02-28T12:56:13;9.30;;;5.20;;
20344;SDS011;10330;48.816;9.278;2023-02-28T13:05:07;10.05;;;6.28;;
20344;SDS011;10330;48.816;9.278;2023-02-28T13:07:43;6.10;;;5.47;;
20344;SDS011;10330;48.816;9.278;2023-02-28T13:10:23;8.18;;;5.47;;
20344;SDS011;10330;48.816;9.278;2023-02-28T13:12:53;7.93;;;5.07;;
20344;SDS011;10330;48.816;9.278;2023-02-28T13:15:29;8.70;;;5.82;;
20344;SDS011;10330;48.816;9.278;2023-02-28T13:17:56;8.32;;;5.53;;
20344;SDS011;10330;48.816;9.278;2023-02-28T13:20:25;10.32;;;5.88;;
20344;SDS011;10330;48.816;9.278;2023-02-28T13:22:53;6.43;;;5.10;;
20344;SDS011;10330;48.816;9.278;2023-02-28T13:27:59;7.13;;;5.47;;
20344;SDS011;10330;48.816;9.278;2023-02-28T13:33:22;8.25;;;5.13;;
20344;SDS011;10330;48.816;9.278;2023-02-28T13:44:17;7.85;;;5.45;;
20344;SDS011;10330;48.816;9.278;2023-02-28T13:51:52;8.00;;;4.90;;
20344;SDS011;10330;48.816;9.278;2023-02-28T13:57:30;8.05;;;4.97;;
20344;SDS011;10330;48.816;9.278;2023-02-28T14:05:39;7.18;;;5.10;;
20344;SDS011;10330;48.816;9.278;2023-02-28T14:08:13;8.77;;;5.90;;
20344;SDS011;10330;48.816;9.278;2023-02-28T14:10:47;7.05;;;5.05;;
20344;SDS011;10330;48.816;9.278;2023-02-28T14:16:26;7.38;;;4.65;;
20344;SDS011;10330;48.816;9.278;2023-02-28T14:19:03;17.45;;;5.53;;
20344;SDS011;10330;48.816;9.278;2023-02-28T14:33:53;13.50;;;5.55;;
20344;SDS011;10330;48.816;9.278;2023-02-28T14:36:47;8.38;;;5.28;;
20344;SDS011;10330;48.816;9.278;2023-02-28T14:39:16;7.00;;;5.65;;
20344;SDS011;10330;48.816;9.278;2023-02-28T14:41:46;6.65;;;5.13;;
20344;SDS011;10330;48.816;9.278;2023-02-28T14:46:39;7.40;;;5.20;;
20344;SDS011;10330;48.816;9.278;2023-02-28T14:51:50;11.40;;;6.50;;
20344;SDS011;10330;48.816;9.278;2023-02-28T14:54:29;7.45;;;4.95;;
20344;SDS011;10330;48.816;9.278;2023-02-28T14:56:55;14.77;;;6.43;;
20344;SDS011;10330;48.816;9.278;2023-02-28T14:59:27;10.68;;;5.93;;
20344;SDS011;10330;48.816;9.278;2023-02-28T15:04:58;9.07;;;6.05;;
20344;SDS011;10330;48.816;9.278;2023-02-28T15:07:27;9.63;;;6.07;;
20344;SDS011;10330;48.816;9.278;2023-02-28T15:12:36;6.20;;;5.45;;
20344;SDS011;10330;48.816;9.278;2023-02-28T15:15:05;10.93;;;7.00;;
20344;SDS011;10330;48.816;9.278;2023-02-28T15:17:36;7.75;;;6.03;;
20344;SDS011;10330;48.816;9.278;2023-02-28T15:20:02;10.23;;;6.68;;
20344;SDS011;10330;48.816;9.278;2023-02-28T15:22:31;11.07;;;6.90;;
20344;SDS011;10330;48.816;9.278;2023-02-28T15:25:01;10.20;;;6.50;;
20344;SDS011;10330;48.816;9.278;2023-02-28T15:27:30;8.15;;;5.88;;
20344;SDS011;10330;48.816;9.278;2023-02-28T15:29:59;8.35;;;5.50;;
20344;SDS011;10330;48.816;9.278;2023-02-28T15:32:34;10.43;;;5.65;;
20344;SDS011;10330;48.816;9.278;2023-02-28T15:37:55;12.38;;;6.18;;
20344;SDS011;10330;48.816;9.278;2023-02-28T15:40:44;10.38;;;5.60;;
20344;SDS011;10330;48.816;9.278;2023-02-28T15:43:23;10.68;;;5.50;;
20344;SDS011;10330;48.816;9.278;2023-02-28T15:48:35;9.05;;;5.82;;
20344;SDS011;10330;48.816;9.278;2023-02-28T15:51:24;12.40;;;6.43;;
20344;SDS011;10330;48.816;9.278;2023-02-28T15:54:01;11.00;;;6.85;;
20344;SDS011;10330;48.816;9.278;2023-02-28T15:56:43;10.13;;;5.90;;
20344;SDS011;10330;48.816;9.278;2023-02-28T15:59:21;8.18;;;6.18;;
20344;SDS011;10330;48.816;9.278;2023-02-28T16:02:03;13.30;;;6.78;;
20344;SDS011;10330;48.816;9.278;2023-02-28T16:04:35;9.32;;;5.65;;
20344;SDS011;10330;48.816;9.278;2023-02-28T16:07:03;10.30;;;5.57;;
20344;SDS011;10330;48.816;9.278;2023-02-28T16:09:30;8.00;;;5.47;;
20344;SDS011;10330;48.816;9.278;2023-02-28T16:12:00;9.75;;;6.68;;
20344;SDS011;10330;48.816;9.278;2023-02-28T16:14:28;9.45;;;6.10;;
20344;SDS011;10330;48.816;9.278;2023-02-28T16:16:57;9.55;;;6.07;;
20344;SDS011;10330;48.816;9.278;2023-02-28T16:19:29;9.57;;;6.32;;
20344;SDS011;10330;48.816;9.278;2023-02-28T16:21:56;11.45;;;6.25;;
20344;SDS011;10330;48.816;9.278;2023-02-28T16:24:23;10.13;;;6.00;;
20344;SDS011;10330;48.816;9.278;2023-02-28T16:26:50;9.77;;;5.88;;
20344;SDS011;10330;48.816;9.278;2023-02-28T16:29:24;11.60;;;6.85;;
20344;SDS011;10330;48.816;9.278;2023-02-28T16:31:53;10.68;;;6.72;;
20344;SDS011;10330;48.816;9.278;2023-02-28T16:34:20;8.88;;;6.45;;
20344;SDS011;10330;48.816;9.278;2023-02-28T16:36:47;7.50;;;5.85;;
20344;SDS011;10330;48.816;9.278;2023-02-28T16:39:14;14.73;;;7.05;;
20344;SDS011;10330;48.816;9.278;2023-02-28T16:41:43;11.73;;;6.45;;
20344;SDS011;10330;48.816;9.278;2023-02-28T16:44:21;10.65;;;5.93;;
20344;SDS011;10330;48.816;9.278;2023-02-28T16:46:53;15.73;;;6.28;;
20344;SDS011;10330;48.816;9.278;2023-02-28T16:49:20;8.05;;;5.82;;
20344;SDS011;10330;48.816;9.278;2023-02-28T16:51:46;8.18;;;5.80;;
20344;SDS011;10330;48.816;9.278;2023-02-28T16:54:12;10.23;;;6.32;;
20344;SDS011;10330;48.816;9.278;2023-02-28T16:56:40;9.27;;;6.18;;
20344;SDS011;10330;48.816;9.278;2023-02-28T16:59:09;9.95;;;6.43;;
20344;SDS011;10330;48.816;9.278;2023-02-28T17:01:36;13.52;;;7.00;;
20344;SDS011;10330;48.816;9.278;2023-02-28T17:04:03;13.55;;;6.97;;
20344;SDS011;10330;48.816;9.278;2023-02-28T17:06:29;10.75;;;5.90;;
20344;SDS011;10330;48.816;9.278;2023-02-28T17:08:57;11.02;;;6.78;;
20344;SDS011;10330;48.816;9.278;2023-02-28T17:11:24;9.88;;;5.53;;
20344;SDS011;10330;48.816;9.278;2023-02-28T17:13:51;27.55;;;13.13;;
20344;SDS011;10330;48.816;9.278;2023-02-28T17:16:30;54.97;;;20.58;;
20344;SDS011;10330;48.816;9.278;2023-02-28T17:18:59;29.15;;;13.90;;
20344;SDS011;10330;48.816;9.278;2023-02-28T17:21:28;17.10;;;9.43;;
20344;SDS011;10330;48.816;9.278;2023-02-28T17:23:55;28.05;;;13.10;;
20344;SDS011;10330;48.816;9.278;2023-02-28T17:26:22;54.22;;;23.95;;
20344;SDS011;10330;48.816;9.278;2023-02-28T17:28:53;26.70;;;13.40;;
20344;SDS011;10330;48.816;9.278;2023-02-28T17:31:25;26.33;;;12.02;;
20344;SDS011;10330;48.816;9.278;2023-02-28T17:33:52;14.90;;;7.68;;
20344;SDS011;10330;48.816;9.278;2023-02-28T17:36:24;13.07;;;6.53;;
20344;SDS011;10330;48.816;9.278;2023-02-28T17:38:51;18.45;;;8.25;;
20344;SDS011;10330;48.816;9.278;2023-02-28T17:41:20;61.50;;;20.00;;
20344;SDS011;10330;48.816;9.278;2023-02-28T17:43:47;29.63;;;12.95;;
20344;SDS011;10330;48.816;9.278;2023-02-28T17:46:17;18.30;;;8.90;;
20344;SDS011;10330;48.816;9.278;2023-02-28T17:48:51;11.25;;;7.00;;
20344;SDS011;10330;48.816;9.278;2023-02-28T17:51:19;14.65;;;7.32;;
20344;SDS011;10330;48.816;9.278;2023-02-28T17:53:47;13.45;;;6.65;;
20344;SDS011;10330;48.816;9.278;2023-02-28T17:56:20;10.82;;;7.45;;
20344;SDS011;10330;48.816;9.278;2023-02-28T17:58:48;14.75;;;7.82;;
20344;SDS011;10330;48.816;9.278;2023-02-28T18:01:16;14.32;;;8.20;;
20344;SDS011;10330;48.816;9.278;2023-02-28T18:03:43;14.55;;;7.63;;
20344;SDS011;10330;48.816;9.278;2023-02-28T18:06:13;13.98;;;7.88;;
20344;SDS011;10330;48.816;9.278;2023-02-28T18:08:52;14.32;;;8.10;;
20344;SDS011;10330;48.816;9.278;2023-02-28T18:11:20;17.35;;;8.85;;
20344;SDS011;10330;48.816;9.278;2023-02-28T18:13:49;14.18;;;7.35;;
20344;SDS011;10330;48.816;9.278;2023-02-28T18:16:18;16.00;;;9.10;;
20344;SDS011;10330;48.816;9.278;2023-02-28T18:18:46;20.13;;;8.77;;
20344;SDS011;10330;48.816;9.278;2023-02-28T18:21:13;15.07;;;8.07;;
20344;SDS011;10330;48.816;9.278;2023-02-28T18:23:41;16.73;;;7.25;;
20344;SDS011;10330;48.816;9.278;2023-02-28T18:26:15;28.55;;;10.82;;
20344;SDS011;10330;48.816;9.278;2023-02-28T18:28:42;41.83;;;18.17;;
20344;SDS011;10330;48.816;9.278;2023-02-28T18:31:10;28.25;;;13.27;;
20344;SDS011;10330;48.816;9.278;2023-02-28T18:33:40;50.13;;;19.05;;
20344;SDS011;10330;48.816;9.278;2023-02-28T18:36:09;76.15;;;32.38;;
20344;SDS011;10330;48.816;9.278;2023-02-28T18:38:36;29.90;;;12.90;;
20344;SDS011;10330;48.816;9.278;2023-02-28T18:41:03;22.27;;;9.95;;
20344;SDS011;10330;48.816;9.278;2023-02-28T18:43:31;20.77;;;9.23;;
20344;SDS011;10330;48.816;9.278;2023-02-28T18:46:02;18.48;;;8.88;;
20344;SDS011;10330;48.816;9.278;2023-02-28T18:48:30;19.25;;;9.63;;
20344;SDS011;10330;48.816;9.278;2023-02-28T18:50:56;16.85;;;8.30;;
20344;SDS011;10330;48.816;9.278;2023-02-28T18:53:22;22.60;;;10.00;;
20344;SDS011;10330;48.816;9.278;2023-02-28T18:55:48;20.77;;;8.80;;
20344;SDS011;10330;48.816;9.278;2023-02-28T18:58:15;19.83;;;9.85;;
20344;SDS011;10330;48.816;9.278;2023-02-28T19:00:41;18.60;;;9.20;;
20344;SDS011;10330;48.816;9.278;2023-02-28T19:03:08;20.08;;;9.68;;
20344;SDS011;10330;48.816;9.278;2023-02-28T19:05:35;19.60;;;9.38;;
20344;SDS011;10330;48.816;9.278;2023-02-28T19:08:02;17.25;;;9.55;;
20344;SDS011;10330;48.816;9.278;2023-02-28T19:10:29;19.15;;;9.38;;
20344;SDS011;10330;48.816;9.278;2023-02-28T19:12:55;22.23;;;10.77;;
20344;SDS011;10330;48.816;9.278;2023-02-28T19:15:25;22.90;;;11.13;;
20344;SDS011;10330;48.816;9.278;2023-02-28T19:17:54;23.20;;;10.60;;
20344;SDS011;10330;48.816;9.278;2023-02-28T19:20:26;24.75;;;10.45;;
20344;SDS011;10330;48.816;9.278;2023-02-28T19:22:53;18.60;;;8.98;;
20344;SDS011;10330;48.816;9.278;2023-02-28T19:25:19;19.20;;;9.88;;
20344;SDS011;10330;48.816;9.278;2023-02-28T19:27:45;19.33;;;9.52;;
20344;SDS011;10330;48.816;9.278;2023-02-28T19:30:11;20.08;;;9.38;;
20344;SDS011;10330;48.816;9.278;2023-02-28T19:32:38;18.92;;;8.93;;
20344;SDS011;10330;48.816;9.278;2023-02-28T19:35:04;18.50;;;9.00;;
20344;SDS011;10330;48.816;9.278;2023-02-28T19:37:31;18.95;;;8.68;;
20344;SDS011;10330;48.816;9.278;2023-02-28T19:39:57;16.10;;;8.77;;
20344;SDS011;10330;48.816;9.278;2023-02-28T19:42:23;16.63;;;9.40;;
20344;SDS011;10330;48.816;9.278;2023-02-28T19:44:56;19.27;;;8.85;;
20344;SDS011;10330;48.816;9.278;2023-02-28T19:47:22;22.10;;;9.85;;
20344;SDS011;10330;48.816;9.278;2023-02-28T19:49:49;18.05;;;9.73;;
20344;SDS011;10330;48.816;9.278;2023-02-28T19:52:22;19.52;;;9.35;;
20344;SDS011;10330;48.816;9.278;2023-02-28T19:54:50;33.13;;;15.70;;
20344;SDS011;10330;48.816;9.278;2023-02-28T19:57:16;37.67;;;15.98;;
20344;SDS011;10330;48.816;9.278;2023-02-28T19:59:45;22.88;;;12.20;;
20344;SDS011;10330;48.816;9.278;2023-02-28T20:02:12;29.27;;;15.13;;
20344;SDS011;10330;48.816;9.278;2023-02-28T20:04:40;33.72;;;14.43;;
20344;SDS011;10330;48.816;9.278;2023-02-28T20:07:06;20.55;;;10.88;;
20344;SDS011;10330;48.816;9.278;2023-02-28T20:09:33;20.63;;;9.25;;
20344;SDS011;10330;48.816;9.278;2023-02-28T20:11:59;24.02;;;9.43;;
20344;SDS011;10330;48.816;9.278;2023-02-28T20:14:26;17.83;;;8.50;;
20344;SDS011;10330;48.816;9.278;2023-02-28T20:16:52;22.73;;;10.23;;
20344;SDS011;10330;48.816;9.278;2023-02-28T20:19:18;21.02;;;10.43;;
20344;SDS011;10330;48.816;9.278;2023-02-28T20:21:45;20.88;;;9.60;;
20344;SDS011;10330;48.816;9.278;2023-02-28T20:24:11;16.48;;;9.55;;
20344;SDS011;10330;48.816;9.278;2023-02-28T20:26:37;20.67;;;8.88;;
20344;SDS011;10330;48.816;9.278;2023-02-28T20:29:04;17.30;;;9.10;;
20344;SDS011;10330;48.816;9.278;2023-02-28T20:31:32;23.90;;;11.20;;
20344;SDS011;10330;48.816;9.278;2023-02-28T20:34:02;22.30;;;9.63;;
20344;SDS011;10330;48.816;9.278;2023-02-28T20:36:29;19.88;;;9.25;;
20344;SDS011;10330;48.816;9.278;2023-02-28T20:38:56;18.90;;;10.15;;
20344;SDS011;10330;48.816;9.278;2023-02-28T20:41:22;18.75;;;9.85;;
20344;SDS011;10330;48.816;9.278;2023-02-28T20:43:55;19.30;;;9.23;;
20344;SDS011;10330;48.816;9.278;2023-02-28T20:46:28;18.08;;;9.63;;
20344;SDS011;10330;48.816;9.278;2023-02-28T20:48:56;20.77;;;9.43;;
20344;SDS011;10330;48.816;9.278;2023-02-28T20:51:22;18.48;;;8.77;;
20344;SDS011;10330;48.816;9.278;2023-02-28T20:53:48;18.95;;;9.65;;
20344;SDS011;10330;48.816;9.278;2023-02-28T20:56:15;20.38;;;10.43;;
20344;SDS011;10330;48.816;9.278;2023-02-28T20:58:44;21.67;;;11.43;;
20344;SDS011;10330;48.816;9.278;2023-02-28T21:01:13;28.67;;;14.38;;
20344;SDS011;10330;48.816;9.278;2023-02-28T21:06:12;26.83;;;11.60;;
20344;SDS011;10330;48.816;9.278;2023-02-28T21:08:40;19.95;;;10.40;;
20344;SDS011;10330;48.816;9.278;2023-02-28T21:11:12;20.42;;;11.15;;
20344;SDS011;10330;48.816;9.278;2023-02-28T21:13:40;22.58;;;10.93;;
20344;SDS011;10330;48.816;9.278;2023-02-28T21:16:08;43.38;;;22.00;;
20344;SDS011;10330;48.816;9.278;2023-02-28T21:18:37;51.78;;;22.77;;
20344;SDS011;10330;48.816;9.278;2023-02-28T21:21:09;91.35;;;35.88;;
20344;SDS011;10330;48.816;9.278;2023-02-28T21:23:56;50.88;;;19.95;;
20344;SDS011;10330;48.816;9.278;2023-02-28T21:26:52;22.83;;;10.93;;
20344;SDS011;10330;48.816;9.278;2023-02-28T21:37:02;20.27;;;10.15;;
20344;SDS011;10330;48.816;9.278;2023-02-28T21:48:38;24.05;;;9.88;;
20344;SDS011;10330;48.816;9.278;2023-02-28T21:55:24;16.98;;;9.43;;
20344;SDS011;10330;48.816;9.278;2023-02-28T21:59:07;16.92;;;9.35;;
20344;SDS011;10330;48.816;9.278;2023-02-28T22:07:04;20.73;;;9.30;;
20344;SDS011;10330;48.816;9.278;2023-02-28T22:09:39;20.40;;;9.73;;
20344;SDS011;10330;48.816;9.278;2023-02-28T22:16:36;16.10;;;8.43;;
20344;SDS011;10330;48.816;9.278;2023-02-28T22:19:06;27.38;;;10.02;;
20344;SDS011;10330;48.816;9.278;2023-02-28T22:21:33;28.85;;;12.25;;
20344;SDS011;10330;48.816;9.278;2023-02-28T22:24:01;33.90;;;14.38;;
20344;SDS011;10330;48.816;9.278;2023-02-28T22:26:28;24.05;;;11.00;;
20344;SDS011;10330;48.816;9.278;2023-02-28T22:28:58;19.77;;;9.98;;
20344;SDS011;10330;48.816;9.278;2023-02-28T22:31:29;46.10;;;21.33;;
20344;SDS011;10330;48.816;9.278;2023-02-28T22:33:57;74.53;;;26.13;;